createdAt,value
2018-09-14T00:02:27.271Z,4.27
2018-09-14T00:04:57.776Z,5.03
2018-09-14T00:07:28.371Z,5.43
2018-09-14T00:09:58.952Z,7.50
2018-09-14T00:12:29.538Z,7.70
2018-09-14T00:15:00.052Z,6.73
2018-09-14T00:17:30.620Z,9.17
2018-09-14T00:20:01.511Z,10.53
2018-09-14T00:22:32.118Z,5.70
2018-09-14T00:25:02.672Z,5.93
2018-09-14T00:27:33.302Z,6.30
2018-09-14T00:30:03.935Z,6.30
2018-09-14T00:32:34.770Z,7.50
2018-09-14T00:35:06.026Z,4.43
2018-09-14T00:37:36.730Z,4.57
2018-09-14T00:40:07.590Z,5.87
2018-09-14T00:42:38.179Z,7.27
2018-09-14T00:45:08.832Z,7.97
2018-09-14T00:47:39.526Z,8.37
2018-09-14T00:50:10.142Z,4.90
2018-09-14T00:52:40.815Z,6.87
2018-09-14T00:55:17.859Z,4.60
2018-09-14T00:57:48.394Z,7.50
2018-09-14T01:00:19.198Z,4.20
2018-09-14T01:02:49.758Z,5.83
2018-09-14T01:05:21.656Z,8.50
2018-09-14T01:07:52.250Z,5.60
2018-09-14T01:10:22.769Z,6.20
2018-09-14T01:12:53.385Z,7.63
2018-09-14T01:15:23.921Z,6.50
2018-09-14T01:17:54.467Z,6.83
2018-09-14T01:20:24.978Z,5.10
2018-09-14T01:22:55.482Z,8.63
2018-09-14T01:25:26.076Z,6.10
2018-09-14T01:27:56.703Z,7.33
2018-09-14T01:30:27.210Z,6.93
2018-09-14T01:32:58.070Z,6.57
2018-09-14T01:35:33.614Z,7.63
2018-09-14T01:38:04.180Z,5.53
2018-09-14T01:40:34.695Z,6.90
2018-09-14T01:43:05.301Z,6.37
2018-09-14T01:45:35.861Z,4.40
2018-09-14T01:48:06.524Z,8.77
2018-09-14T01:50:37.150Z,4.87
2018-09-14T01:53:08.034Z,6.73
2018-09-14T01:55:38.582Z,7.67
2018-09-14T01:58:09.164Z,6.90
2018-09-14T02:00:39.716Z,7.13
2018-09-14T02:03:10.291Z,5.67
2018-09-14T02:05:40.853Z,5.83
2018-09-14T02:08:11.470Z,6.37
2018-09-14T02:10:41.974Z,6.50
2018-09-14T02:13:12.534Z,8.73
2018-09-14T02:15:43.054Z,7.83
2018-09-14T02:18:13.666Z,8.80
2018-09-14T02:20:44.117Z,11.23
2018-09-14T02:23:14.724Z,6.43
2018-09-14T02:25:45.190Z,7.27
2018-09-14T02:28:15.711Z,6.50
2018-09-14T02:30:46.262Z,5.10
2018-09-14T02:33:17.586Z,6.60
2018-09-14T02:35:48.110Z,4.87
2018-09-14T02:38:18.625Z,4.27
2018-09-14T02:40:49.199Z,4.93
2018-09-14T02:43:19.715Z,4.70
2018-09-14T02:45:50.291Z,4.20
2018-09-14T02:48:21.201Z,5.77
2018-09-14T02:50:51.795Z,4.27
2018-09-14T02:53:22.495Z,4.77
2018-09-14T02:55:53.116Z,4.90
2018-09-14T02:58:23.975Z,5.57
2018-09-14T03:00:54.515Z,6.70
2018-09-14T03:03:25.156Z,7.03
2018-09-14T03:05:55.691Z,8.53
2018-09-14T03:08:26.200Z,4.30
2018-09-14T03:10:56.695Z,8.27
2018-09-14T03:13:27.274Z,7.20
2018-09-14T03:15:57.761Z,5.83
2018-09-14T03:18:28.330Z,5.33
2018-09-14T03:20:58.830Z,5.03
2018-09-14T03:23:29.399Z,5.30
2018-09-14T03:25:59.865Z,7.50
2018-09-14T03:28:30.450Z,5.37
2018-09-14T03:31:00.991Z,8.10
2018-09-14T03:33:31.596Z,7.03
2018-09-14T03:36:02.051Z,4.83
2018-09-14T03:38:32.580Z,5.03
2018-09-14T03:41:03.110Z,5.13
2018-09-14T03:43:33.691Z,3.00
2018-09-14T03:46:04.180Z,4.20
2018-09-14T03:48:34.962Z,4.70
2018-09-14T03:51:05.574Z,6.03
2018-09-14T03:53:36.170Z,3.63
2018-09-14T03:56:06.690Z,3.00
2018-09-14T03:58:37.351Z,3.00
2018-09-14T04:01:08.270Z,2.87
2018-09-14T04:03:38.880Z,2.77
2018-09-14T04:06:09.380Z,3.17
2018-09-14T04:08:39.930Z,3.93
2018-09-14T04:11:10.542Z,4.83
2018-09-14T04:13:41.111Z,5.57
2018-09-14T04:16:11.702Z,3.57
2018-09-14T04:18:42.643Z,5.27
2018-09-14T04:21:13.169Z,2.73
2018-09-14T04:23:43.769Z,1.83
2018-09-14T04:26:14.338Z,2.67
2018-09-14T04:28:45.017Z,3.13
2018-09-14T04:31:15.611Z,4.13
2018-09-14T04:33:46.155Z,2.87
2018-09-14T04:36:17.402Z,4.57
2018-09-14T04:38:47.974Z,4.63
2018-09-14T04:41:18.522Z,3.73
2018-09-14T04:43:49.167Z,3.27
2018-09-14T04:46:19.689Z,2.60
2018-09-14T04:48:50.255Z,3.80
2018-09-14T04:51:20.888Z,3.20
2018-09-14T04:53:51.442Z,5.17
2018-09-14T04:56:21.922Z,3.00
2018-09-14T04:58:52.654Z,3.58
2018-09-14T05:01:23.154Z,3.13
2018-09-14T05:03:53.695Z,4.60
2018-09-14T05:06:24.171Z,3.20
2018-09-14T05:08:54.704Z,4.23
2018-09-14T05:11:25.251Z,2.80
2018-09-14T05:13:56.046Z,5.40
2018-09-14T05:16:26.591Z,4.10
2018-09-14T05:18:57.195Z,4.73
2018-09-14T05:21:27.778Z,3.67
2018-09-14T05:23:58.430Z,2.53
2018-09-14T05:26:28.956Z,2.03
2018-09-14T05:28:59.596Z,2.10
2018-09-14T05:31:30.150Z,3.37
2018-09-14T05:34:00.729Z,2.17
2018-09-14T05:36:31.313Z,3.60
2018-09-14T05:39:02.021Z,3.03
2018-09-14T05:41:32.461Z,2.93
2018-09-14T05:44:03.117Z,3.40
2018-09-14T05:46:33.652Z,3.77
2018-09-14T05:49:04.280Z,3.00
2018-09-14T05:51:34.849Z,3.10
2018-09-14T05:54:05.363Z,3.67
2018-09-14T05:56:35.946Z,4.93
2018-09-14T05:59:06.639Z,5.33
2018-09-14T06:01:37.252Z,4.00
2018-09-14T06:04:07.830Z,4.40
2018-09-14T06:06:38.410Z,4.47
2018-09-14T06:09:12.685Z,6.17
2018-09-14T06:11:43.944Z,4.00
2018-09-14T06:14:14.596Z,4.77
2018-09-14T06:16:45.180Z,4.03
2018-09-14T06:19:15.825Z,3.90
2018-09-14T06:21:46.467Z,5.97
2018-09-14T06:24:17.063Z,4.20
2018-09-14T06:26:47.621Z,8.10
2018-09-14T06:29:18.302Z,4.97
2018-09-14T06:31:48.898Z,5.63
2018-09-14T06:34:19.752Z,5.50
2018-09-14T06:36:50.261Z,5.83
2018-09-14T06:39:20.912Z,5.40
2018-09-14T06:41:51.590Z,5.23
2018-09-14T06:44:22.156Z,5.70
2018-09-14T06:46:52.739Z,7.60
2018-09-14T06:49:23.578Z,6.63
2018-09-14T06:51:54.269Z,10.80
2018-09-14T06:54:25.040Z,7.60
2018-09-14T06:56:55.562Z,8.77
2018-09-14T06:59:26.493Z,7.23
2018-09-14T07:01:57.035Z,11.43
2018-09-14T07:04:27.654Z,9.83
2018-09-14T07:06:58.138Z,13.33
2018-09-14T07:09:28.733Z,7.87
2018-09-14T07:11:59.198Z,10.50
2018-09-14T07:14:29.778Z,10.27
2018-09-14T07:17:00.310Z,10.47
2018-09-14T07:19:31.075Z,10.80
2018-09-14T07:22:01.717Z,8.83
2018-09-14T07:24:32.761Z,11.75
2018-09-14T07:27:03.275Z,13.40
2018-09-14T07:29:33.945Z,13.63
2018-09-14T07:32:04.502Z,12.03
2018-09-14T07:34:35.270Z,10.30
2018-09-14T07:37:05.890Z,11.23
2018-09-14T07:39:36.446Z,11.27
2018-09-14T07:42:06.990Z,9.90
2018-09-14T07:59:54.925Z,15.47
2018-09-14T08:02:24.972Z,17.77
2018-09-14T08:04:55.041Z,16.33
2018-09-14T08:07:25.159Z,13.20
2018-09-14T08:09:55.116Z,15.23
2018-09-14T08:12:25.115Z,16.43
2018-09-14T08:14:55.109Z,13.60
2018-09-14T08:17:31.967Z,14.63
2018-09-14T08:20:02.109Z,15.83
2018-09-14T08:22:32.186Z,15.40
2018-09-14T08:25:02.111Z,15.67
2018-09-14T08:27:32.285Z,15.87
2018-09-14T08:30:02.594Z,14.73
2018-09-14T08:32:39.146Z,16.60
2018-09-14T08:35:09.304Z,13.87
2018-09-14T08:37:39.657Z,20.53
2018-09-14T08:40:09.795Z,19.10
2018-09-14T08:42:40.109Z,21.23
2018-09-14T08:45:10.191Z,22.03
2018-09-14T08:47:40.318Z,22.43
2018-09-14T08:50:10.532Z,22.83
2018-09-14T08:52:40.679Z,25.07
2018-09-14T08:55:10.767Z,27.53
2018-09-14T08:57:40.926Z,25.03
2018-09-14T09:00:11.070Z,26.83
2018-09-14T09:02:41.216Z,25.57
2018-09-14T09:05:11.185Z,31.33
2018-09-14T09:07:41.241Z,30.63
2018-09-14T09:10:11.394Z,23.73
2018-09-14T09:12:41.591Z,23.23
2018-09-14T09:15:11.716Z,27.70
2018-09-14T09:17:41.864Z,25.87
2018-09-14T09:20:12.183Z,25.27
2018-09-14T09:22:42.261Z,28.23
2018-09-14T09:25:12.354Z,28.37
2018-09-14T09:27:42.463Z,22.37
2018-09-14T09:30:12.594Z,20.93
2018-09-14T09:32:42.674Z,22.33
2018-09-14T09:35:12.788Z,21.37
2018-09-14T09:37:43.008Z,19.43
2018-09-14T09:40:13.164Z,15.38
2018-09-14T09:42:43.146Z,17.13
2018-09-14T09:45:13.140Z,18.27
2018-09-14T09:47:43.318Z,17.40
2018-09-14T09:50:13.515Z,14.40
2018-09-14T09:52:43.561Z,16.67
2018-09-14T09:55:13.600Z,14.80
2018-09-14T09:57:44.165Z,13.97
2018-09-14T10:00:19.392Z,14.77
2018-09-14T10:02:54.538Z,10.17
2018-09-14T10:05:29.478Z,8.30
2018-09-14T10:07:59.546Z,14.43
2018-09-14T10:10:29.702Z,13.27
2018-09-14T10:12:59.776Z,17.03
2018-09-14T10:15:29.848Z,14.07
2018-09-14T10:17:59.878Z,11.90
2018-09-14T10:20:30.011Z,10.80
2018-09-14T10:23:00.114Z,11.70
2018-09-14T10:25:30.310Z,12.63
2018-09-14T10:28:00.361Z,12.63
2018-09-14T10:30:30.504Z,10.53
2018-09-14T10:33:00.541Z,12.87
2018-09-14T10:35:30.663Z,11.43
2018-09-14T10:38:00.776Z,10.90
2018-09-14T10:40:31.089Z,11.48
2018-09-14T10:43:01.157Z,11.33
2018-09-14T10:45:31.330Z,9.00
2018-09-14T10:48:01.301Z,8.28
2018-09-14T10:50:31.371Z,9.80
2018-09-14T10:53:01.413Z,10.35
2018-09-14T10:55:31.464Z,8.10
2018-09-14T10:58:01.551Z,11.43
2018-09-14T11:00:31.680Z,10.45
2018-09-14T11:03:01.706Z,9.53
2018-09-14T11:05:31.813Z,9.67
2018-09-14T11:08:01.879Z,10.60
2018-09-14T11:10:32.016Z,11.80
2018-09-14T11:13:02.179Z,11.13
2018-09-14T11:15:33.000Z,11.70
2018-09-14T11:18:03.040Z,7.75
2018-09-14T11:20:33.208Z,13.20
2018-09-14T11:23:03.280Z,10.97
2018-09-14T11:25:33.527Z,11.00
2018-09-14T11:28:03.853Z,12.95
2018-09-14T11:30:33.783Z,15.53
2018-09-14T11:33:03.844Z,14.60
2018-09-14T11:35:33.940Z,10.25
2018-09-14T11:38:04.039Z,13.62
2018-09-14T11:40:34.145Z,9.45
2018-09-14T11:43:04.193Z,12.80
2018-09-14T11:45:34.296Z,11.30
2018-09-14T11:48:04.314Z,16.00
2018-09-14T11:50:34.399Z,14.30
2018-09-14T11:53:04.554Z,12.60
2018-09-14T11:55:34.733Z,12.13
2018-09-14T11:58:04.863Z,15.28
2018-09-14T12:00:35.078Z,15.78
2018-09-14T12:03:05.191Z,12.37
2018-09-14T12:05:35.560Z,13.43
2018-09-14T12:08:05.486Z,16.25
2018-09-14T12:10:35.636Z,13.50
2018-09-14T12:13:05.641Z,15.63
2018-09-14T12:15:35.792Z,11.68
2018-09-14T12:18:05.898Z,13.03
2018-09-14T12:20:36.021Z,12.15
2018-09-14T12:23:06.117Z,15.40
2018-09-14T12:25:38.174Z,12.00
2018-09-14T12:28:09.766Z,12.55
2018-09-14T12:30:40.491Z,9.88
2018-09-14T12:33:12.349Z,15.72
2018-09-14T12:35:42.856Z,14.13
2018-09-14T12:38:13.431Z,12.03
2018-09-14T12:40:44.095Z,11.03
2018-09-14T12:43:14.784Z,11.00
2018-09-14T12:45:46.506Z,14.03
2018-09-14T12:48:17.492Z,11.83
2018-09-14T12:50:48.911Z,10.10
2018-09-14T12:53:22.351Z,10.50
2018-09-14T12:55:55.410Z,11.12
2018-09-14T12:58:27.659Z,9.80
2018-09-14T13:00:59.389Z,11.88
2018-09-14T13:03:32.065Z,12.28
2018-09-14T13:06:03.159Z,10.88
2018-09-14T13:08:34.689Z,13.13
2018-09-14T13:11:05.582Z,12.00
2018-09-14T13:13:36.149Z,9.55
2018-09-14T13:16:07.913Z,12.03
2018-09-14T13:18:39.105Z,11.63
2018-09-14T13:21:10.518Z,13.13
2018-09-14T13:23:41.243Z,11.50
2018-09-14T13:26:13.378Z,11.38
2018-09-14T13:28:44.230Z,12.37
2018-09-14T13:31:15.841Z,12.65
2018-09-14T13:33:47.542Z,12.45
2018-09-14T13:36:19.490Z,13.10
2018-09-14T13:38:56.319Z,11.75
2018-09-14T13:41:27.513Z,10.78
2018-09-14T13:44:00.848Z,11.78
2018-09-14T13:46:32.891Z,12.80
2018-09-14T13:49:04.203Z,10.65
2018-09-14T13:51:35.080Z,11.57
2018-09-14T13:54:05.922Z,9.38
2018-09-14T13:56:36.676Z,8.55
2018-09-14T13:59:08.250Z,10.53
2018-09-14T14:01:38.973Z,10.78
2018-09-14T14:04:09.653Z,9.23
2018-09-14T14:06:40.366Z,8.95
2018-09-14T14:09:13.732Z,12.00
2018-09-14T14:11:44.603Z,11.05
2018-09-14T14:14:15.561Z,11.10
2018-09-14T14:16:47.369Z,9.45
2018-09-14T14:19:19.223Z,9.53
2018-09-14T14:21:50.021Z,13.68
2018-09-14T14:24:20.772Z,11.97
2018-09-14T14:26:51.459Z,11.45
2018-09-14T14:29:22.303Z,11.22
2018-09-14T14:31:53.015Z,10.65
2018-09-14T14:34:28.319Z,9.18
2018-09-14T14:36:58.976Z,11.33
2018-09-14T14:39:30.606Z,10.40
2018-09-14T14:42:01.483Z,7.10
2018-09-14T14:44:32.969Z,12.03
2018-09-14T14:47:05.357Z,7.62
2018-09-14T14:49:36.803Z,9.05
2018-09-14T14:52:09.430Z,9.48
2018-09-14T14:54:40.470Z,6.80
2018-09-14T14:57:11.326Z,9.73
2018-09-14T14:59:44.889Z,9.10
2018-09-14T15:02:17.172Z,9.03
2018-09-14T15:04:48.008Z,8.93
2018-09-14T15:07:20.315Z,7.20
2018-09-14T15:09:51.843Z,7.40
2018-09-14T15:12:23.307Z,10.23
2018-09-14T15:14:55.549Z,7.55
2018-09-14T15:17:26.825Z,10.30
2018-09-14T15:20:04.269Z,9.50
2018-09-14T15:22:35.493Z,7.45
2018-09-14T15:25:07.186Z,6.90
2018-09-14T15:27:38.162Z,7.08
2018-09-14T15:30:08.993Z,6.62
2018-09-14T15:32:41.302Z,9.43
2018-09-14T15:35:12.509Z,10.90
2018-09-14T15:37:43.266Z,8.53
2018-09-14T15:40:14.275Z,10.37
2018-09-14T15:42:45.641Z,7.83
2018-09-14T15:45:16.593Z,9.93
2018-09-14T15:47:47.381Z,6.40
2018-09-14T15:50:18.939Z,9.30
2018-09-14T15:52:49.743Z,8.10
2018-09-14T15:55:20.721Z,9.87
2018-09-14T15:57:53.175Z,12.57
2018-09-14T16:00:24.143Z,6.50
2018-09-14T16:02:55.157Z,7.72
2018-09-14T16:05:48.113Z,6.50
2018-09-14T16:08:18.629Z,8.00
2018-09-14T16:10:51.607Z,7.08
2018-09-14T16:13:22.443Z,5.78
2018-09-14T16:15:53.519Z,10.15
2018-09-14T16:18:24.315Z,8.30
2018-09-14T16:20:55.066Z,6.25
2018-09-14T16:23:26.450Z,10.32
2018-09-14T16:25:57.198Z,5.75
2018-09-14T16:28:27.934Z,8.13
2018-09-14T16:30:58.556Z,9.13
2018-09-14T16:33:29.102Z,7.70
2018-09-14T16:35:59.807Z,7.83
2018-09-14T16:38:30.450Z,7.28
2018-09-14T16:41:01.091Z,10.30
2018-09-14T16:43:31.651Z,9.10
2018-09-14T16:46:02.251Z,6.95
2018-09-14T16:48:32.851Z,7.60
2018-09-14T16:51:03.274Z,9.53
2018-09-14T16:53:33.534Z,10.95
2018-09-14T16:56:03.814Z,9.00
2018-09-14T16:58:34.106Z,7.70
2018-09-14T17:01:26.652Z,6.60
2018-09-14T17:03:56.925Z,10.70
2018-09-14T17:06:27.728Z,9.53
2018-09-14T17:09:20.834Z,10.37
2018-09-14T17:11:51.289Z,8.18
2018-09-14T17:14:21.858Z,9.80
2018-09-14T17:16:52.410Z,6.97
2018-09-14T17:19:25.014Z,10.63
2018-09-14T17:22:00.967Z,8.37
2018-09-14T17:24:31.379Z,10.03
2018-09-14T17:27:03.298Z,9.38
2018-09-14T17:29:33.606Z,7.70
2018-09-14T17:32:04.021Z,7.58
2018-09-14T17:34:34.883Z,8.63
2018-09-14T17:37:06.523Z,10.40
2018-09-14T17:39:48.550Z,6.37
2018-09-14T17:42:18.947Z,7.93
2018-09-14T17:44:49.626Z,10.20
2018-09-14T17:47:19.932Z,9.10
2018-09-14T17:49:51.654Z,12.87
2018-09-14T17:52:21.805Z,10.43
2018-09-14T17:54:52.117Z,6.13
2018-09-14T17:57:22.383Z,8.93
2018-09-14T17:59:52.533Z,8.60
2018-09-14T18:02:22.823Z,8.83
2018-09-14T18:04:53.188Z,9.30
2018-09-14T18:07:23.645Z,8.07
2018-09-14T18:09:53.949Z,8.40
2018-09-14T18:12:24.175Z,10.30
2018-09-14T18:14:57.621Z,8.57
2018-09-14T18:17:27.882Z,8.83
2018-09-14T18:19:58.059Z,11.93
2018-09-14T18:22:28.278Z,9.03
2018-09-14T18:24:58.509Z,9.47
2018-09-14T18:27:28.781Z,9.47
2018-09-14T18:29:58.958Z,9.50
2018-09-14T18:32:29.144Z,9.17
2018-09-14T18:34:59.369Z,14.43
2018-09-14T18:37:29.535Z,11.93
2018-09-14T18:39:59.624Z,8.90
2018-09-14T18:42:29.791Z,8.27
2018-09-14T18:45:00.022Z,10.30
2018-09-14T18:47:30.119Z,12.03
2018-09-14T18:50:00.615Z,10.33
2018-09-14T18:55:06.723Z,13.13
2018-09-14T18:57:36.961Z,12.57
2018-09-14T19:00:07.326Z,8.63
2018-09-14T19:02:37.619Z,12.20
2018-09-14T19:05:08.313Z,13.37
2018-09-14T19:07:38.589Z,10.57
2018-09-14T19:10:08.875Z,10.63
2018-09-14T19:12:39.203Z,11.60
2018-09-14T19:15:09.471Z,9.67
2018-09-14T19:17:39.695Z,9.77
2018-09-14T19:20:09.537Z,10.13
2018-09-14T19:22:39.800Z,8.83
2018-09-14T19:25:10.063Z,9.77
2018-09-14T19:27:40.191Z,11.50
2018-09-14T19:30:10.747Z,10.00
2018-09-14T19:32:40.918Z,9.50
2018-09-14T19:38:11.699Z,13.27
2018-09-14T19:40:41.817Z,10.50
2018-09-14T19:43:12.440Z,10.17
2018-09-14T19:45:42.561Z,10.33
2018-09-14T19:48:14.111Z,9.13
2018-09-14T19:50:44.270Z,9.00
2018-09-14T19:53:14.506Z,10.00
2018-09-14T19:55:44.660Z,12.90
2018-09-14T19:58:15.217Z,9.83
2018-09-14T20:00:45.728Z,9.50
2018-09-14T20:03:15.875Z,8.83
2018-09-14T20:05:46.090Z,9.40
2018-09-14T20:08:16.376Z,12.67
2018-09-14T20:10:46.531Z,10.63
2018-09-14T20:13:16.749Z,9.20
2018-09-14T20:15:46.997Z,9.03
2018-09-14T20:18:17.228Z,11.40
2018-09-14T20:21:00.420Z,8.27
2018-09-14T20:23:30.799Z,12.57
2018-09-14T20:26:01.021Z,11.43
2018-09-14T20:28:31.169Z,10.33
2018-09-14T20:31:01.530Z,10.00
2018-09-14T20:33:31.788Z,7.57
2018-09-14T20:36:01.960Z,9.17
2018-09-14T20:38:32.188Z,12.53
2018-09-14T20:41:02.441Z,9.23
2018-09-14T20:43:32.658Z,11.07
2018-09-14T20:46:02.804Z,8.73
2018-09-14T20:48:32.905Z,9.47
2018-09-14T20:51:03.049Z,9.20
2018-09-14T20:53:33.233Z,7.73
2018-09-14T20:56:03.514Z,8.87
2018-09-14T20:58:33.994Z,7.13
2018-09-14T21:01:04.228Z,13.23
2018-09-14T21:03:34.541Z,9.33
2018-09-14T21:06:04.913Z,11.30
2018-09-14T21:08:35.278Z,6.80
2018-09-14T21:11:05.672Z,9.73
2018-09-14T21:13:35.912Z,8.20
2018-09-14T21:16:06.169Z,8.47
2018-09-14T21:18:36.397Z,9.03
2018-09-14T21:21:06.665Z,7.30
2018-09-14T21:23:36.918Z,9.67
2018-09-14T21:26:07.074Z,7.90
2018-09-14T21:28:37.303Z,8.97
2018-09-14T21:31:07.558Z,9.33
2018-09-14T21:33:37.698Z,10.87
2018-09-14T21:36:07.986Z,8.20
2018-09-14T21:38:39.213Z,7.07
2018-09-14T21:41:09.356Z,7.90
2018-09-14T21:43:39.454Z,9.23
2018-09-14T21:46:09.666Z,9.68
2018-09-14T21:48:39.840Z,9.37
2018-09-14T21:51:10.021Z,7.30
2018-09-14T21:53:40.300Z,9.17
2018-09-14T21:56:10.509Z,7.40
2018-09-14T21:58:48.493Z,10.93
2018-09-14T22:01:28.064Z,10.65
2018-09-14T22:03:59.693Z,7.47
2018-09-14T22:06:29.958Z,8.40
2018-09-14T22:09:00.163Z,7.67
2018-09-14T22:11:30.385Z,12.50
2018-09-14T22:14:00.591Z,6.97
2018-09-14T22:16:30.774Z,6.47
2018-09-14T22:19:00.966Z,6.67
2018-09-14T22:21:31.167Z,7.67
2018-09-14T22:24:01.341Z,6.67
2018-09-14T22:26:31.560Z,7.37
2018-09-14T22:29:01.762Z,5.43
2018-09-14T22:31:31.999Z,9.47
2018-09-14T22:34:02.173Z,4.67
2018-09-14T22:36:32.508Z,7.67
2018-09-14T22:39:02.744Z,6.30
2018-09-14T22:41:32.934Z,6.23
2018-09-14T22:44:03.190Z,7.87
2018-09-14T22:46:33.296Z,6.87
2018-09-14T22:49:03.556Z,5.87
2018-09-14T22:51:33.758Z,4.93
2018-09-14T22:54:03.966Z,7.17
2018-09-14T22:56:34.217Z,6.10
2018-09-14T22:59:04.570Z,4.80
2018-09-14T23:01:34.802Z,7.13
2018-09-14T23:04:05.370Z,4.90
2018-09-14T23:06:35.533Z,5.63
2018-09-14T23:09:08.349Z,8.17
2018-09-14T23:11:38.538Z,5.47
2018-09-14T23:14:14.169Z,7.93
2018-09-14T23:16:44.714Z,5.93
2018-09-14T23:19:15.310Z,8.00
2018-09-14T23:21:45.730Z,6.03
2018-09-14T23:24:16.469Z,4.23
2018-09-14T23:26:47.483Z,5.97
2018-09-14T23:29:36.601Z,4.43
2018-09-14T23:32:06.922Z,6.40
2018-09-14T23:34:38.284Z,6.20
2018-09-14T23:37:08.757Z,7.40
2018-09-14T23:39:39.877Z,5.97
2018-09-14T23:42:11.061Z,9.83
2018-09-14T23:44:42.218Z,6.50
2018-09-14T23:47:18.767Z,3.97
2018-09-14T23:49:49.862Z,8.27
2018-09-14T23:52:21.799Z,5.13
2018-09-14T23:54:52.765Z,7.03
2018-09-14T23:57:23.479Z,4.03
2018-09-14T23:59:55.109Z,6.97
